createdAt,value
2022-08-12T00:02:03.400Z,0.90
2022-08-12T00:04:50.389Z,0.80
2022-08-12T00:07:36.462Z,1.30
2022-08-12T00:10:22.680Z,1.10
2022-08-12T00:13:07.932Z,0.88
2022-08-12T00:15:54.742Z,1.40
2022-08-12T00:18:39.641Z,1.05
2022-08-12T00:21:25.093Z,0.90
2022-08-12T00:24:12.728Z,1.10
2022-08-12T00:26:59.698Z,0.90
2022-08-12T00:29:47.975Z,1.10
2022-08-12T00:32:35.762Z,1.10
2022-08-12T00:35:24.412Z,1.10
2022-08-12T00:38:20.933Z,1.10
2022-08-12T00:41:06.238Z,1.27
2022-08-12T00:43:35.175Z,1.00
2022-08-12T00:46:22.549Z,0.90
2022-08-12T00:48:49.943Z,0.90
2022-08-12T00:51:17.235Z,1.00
2022-08-12T00:53:43.871Z,1.02
2022-08-12T00:56:10.862Z,1.00
2022-08-12T00:58:45.413Z,0.95
2022-08-12T01:01:14.360Z,0.90
2022-08-12T01:03:59.769Z,0.90
2022-08-12T01:06:46.572Z,1.00
2022-08-12T01:09:38.053Z,0.90
2022-08-12T01:12:06.426Z,0.90
2022-08-12T01:14:33.794Z,1.00
2022-08-12T01:17:00.411Z,1.10
2022-08-12T01:19:27.107Z,1.13
2022-08-12T01:22:14.705Z,1.20
2022-08-12T01:24:57.767Z,1.10
2022-08-12T01:27:25.852Z,1.10
2022-08-12T01:29:53.941Z,1.10
2022-08-12T01:32:22.131Z,1.00
2022-08-12T01:35:13.815Z,1.00
2022-08-12T01:37:59.616Z,1.13
2022-08-12T01:40:36.338Z,1.02
2022-08-12T01:43:13.275Z,0.90
2022-08-12T01:46:08.920Z,1.02
2022-08-12T01:49:12.819Z,1.05
2022-08-12T01:52:21.834Z,1.00
2022-08-12T01:54:42.910Z,1.00
2022-08-12T01:57:58.432Z,0.93
2022-08-12T02:00:55.056Z,1.10
2022-08-12T02:04:02.686Z,1.00
2022-08-12T02:07:01.344Z,1.13
2022-08-12T02:09:59.412Z,1.00
2022-08-12T02:12:32.497Z,1.00
2022-08-12T02:15:22.238Z,1.15
2022-08-12T02:18:01.231Z,0.93
2022-08-12T02:20:51.889Z,1.20
2022-08-12T02:23:23.097Z,0.93
2022-08-12T02:25:51.024Z,1.00
2022-08-12T02:28:17.594Z,1.00
2022-08-12T02:30:44.152Z,0.88
2022-08-12T02:33:11.044Z,1.00
2022-08-12T02:35:39.685Z,1.10
2022-08-12T02:38:09.777Z,1.10
2022-08-12T02:40:39.312Z,0.88
2022-08-12T02:43:14.843Z,1.08
2022-08-12T02:46:13.984Z,1.10
2022-08-12T02:48:58.027Z,1.10
2022-08-12T02:51:30.354Z,1.30
2022-08-12T02:54:05.184Z,1.10
2022-08-12T02:56:37.444Z,1.00
2022-08-12T02:59:04.442Z,1.03
2022-08-12T03:01:34.009Z,1.10
2022-08-12T03:04:04.144Z,1.13
2022-08-12T03:07:10.916Z,1.05
2022-08-12T03:10:04.358Z,1.40
2022-08-12T03:12:43.619Z,1.00
2022-08-12T03:15:18.176Z,0.93
2022-08-12T03:18:25.962Z,0.98
2022-08-12T03:20:42.931Z,1.10
2022-08-12T03:23:19.444Z,1.10
2022-08-12T03:25:56.285Z,1.17
2022-08-12T03:28:41.870Z,1.27
2022-08-12T03:31:10.691Z,0.90
2022-08-12T03:33:40.276Z,1.10
2022-08-12T03:36:09.289Z,1.10
2022-08-12T03:38:40.382Z,1.10
2022-08-12T03:41:32.153Z,1.13
2022-08-12T03:44:25.653Z,1.00
2022-08-12T03:47:26.524Z,1.27
2022-08-12T03:50:13.477Z,1.13
2022-08-12T03:52:58.535Z,1.13
2022-08-12T03:55:43.442Z,1.10
2022-08-12T03:58:28.916Z,1.17
2022-08-12T04:00:55.825Z,1.45
2022-08-12T04:03:41.478Z,1.20
2022-08-12T04:06:10.997Z,1.15
2022-08-12T04:08:38.949Z,1.40
2022-08-12T04:11:25.518Z,1.17
2022-08-12T04:14:05.894Z,1.20
2022-08-12T04:16:35.384Z,1.00
2022-08-12T04:19:02.590Z,1.20
2022-08-12T04:21:29.089Z,1.10
2022-08-12T04:23:56.321Z,1.30
2022-08-12T04:26:25.288Z,1.10
2022-08-12T04:28:51.865Z,1.38
2022-08-12T04:31:18.675Z,1.10
2022-08-12T04:33:45.991Z,1.13
2022-08-12T04:36:12.458Z,1.10
2022-08-12T04:38:39.094Z,1.15
2022-08-12T04:41:05.974Z,1.20
2022-08-12T04:43:59.645Z,1.33
2022-08-12T04:46:23.363Z,1.20
2022-08-12T04:48:52.003Z,1.25
2022-08-12T04:51:20.402Z,1.25
2022-08-12T04:53:48.470Z,0.95
2022-08-12T04:56:16.041Z,1.30
2022-08-12T04:58:42.888Z,1.20
2022-08-12T05:01:10.565Z,1.20
2022-08-12T05:03:46.517Z,1.20
2022-08-12T05:06:18.920Z,1.23
2022-08-12T05:08:57.407Z,1.10
2022-08-12T05:11:25.143Z,1.13
2022-08-12T05:13:58.250Z,1.85
2022-08-12T05:16:32.376Z,1.98
2022-08-12T05:19:01.136Z,2.00
2022-08-12T05:21:29.160Z,2.22
2022-08-12T05:23:55.627Z,2.25
2022-08-12T05:26:22.799Z,32.08
2022-08-12T05:28:49.975Z,42.03
2022-08-12T05:31:42.603Z,45.42
2022-08-12T05:34:03.710Z,22.10
2022-08-12T05:36:30.188Z,40.90
2022-08-12T05:38:56.747Z,54.65
2022-08-12T05:41:24.634Z,16.45
2022-08-12T05:43:53.712Z,14.15
2022-08-12T05:46:21.813Z,9.60
2022-08-12T05:48:49.978Z,8.65
2022-08-12T05:51:17.507Z,7.68
2022-08-12T05:53:44.709Z,6.13
2022-08-12T05:56:28.971Z,5.70
2022-08-12T05:58:57.123Z,4.95
2022-08-12T06:02:10.084Z,4.32
2022-08-12T06:04:14.265Z,3.80
2022-08-12T06:06:43.694Z,3.78
2022-08-12T06:09:11.381Z,3.58
2022-08-12T06:11:53.643Z,3.05
2022-08-12T06:14:28.135Z,3.03
2022-08-12T06:16:55.190Z,3.10
2022-08-12T06:19:21.660Z,2.60
2022-08-12T06:21:49.047Z,3.00
2022-08-12T06:24:18.058Z,3.00
2022-08-12T06:26:44.690Z,2.85
2022-08-12T06:29:17.954Z,2.80
2022-08-12T06:32:04.911Z,2.70
2022-08-12T06:35:25.566Z,2.80
2022-08-12T06:37:25.347Z,2.92
2022-08-12T06:39:52.235Z,3.20
2022-08-12T06:42:37.410Z,3.15
2022-08-12T06:45:05.546Z,13.63
2022-08-12T06:47:36.735Z,27.05
2022-08-12T06:50:03.483Z,44.97
2022-08-12T06:52:31.242Z,37.13
2022-08-12T06:54:59.886Z,57.28
2022-08-12T06:58:05.862Z,56.72
2022-08-12T07:00:22.496Z,62.38
2022-08-12T07:02:58.141Z,68.00
2022-08-12T07:05:25.283Z,22.08
2022-08-12T07:07:55.841Z,20.73
2022-08-12T07:10:23.372Z,21.42
2022-08-12T07:12:54.794Z,25.92
2022-08-12T07:15:25.912Z,30.85
2022-08-12T07:18:13.808Z,29.65
2022-08-12T07:20:52.243Z,33.42
2022-08-12T07:23:19.735Z,36.30
2022-08-12T07:25:46.260Z,40.20
2022-08-12T07:28:16.443Z,47.50
2022-08-12T07:30:45.024Z,44.53
2022-08-12T07:33:12.806Z,45.50
2022-08-12T07:35:45.550Z,54.75
2022-08-12T07:38:29.134Z,47.63
2022-08-12T07:41:03.259Z,40.25
2022-08-12T07:43:31.085Z,33.72
2022-08-12T07:45:58.230Z,30.55
2022-08-12T07:48:25.792Z,27.27
2022-08-12T07:50:53.355Z,24.40
2022-08-12T07:53:21.381Z,22.27
2022-08-12T07:55:47.980Z,21.63
2022-08-12T07:58:14.552Z,17.63
2022-08-12T08:00:41.121Z,29.13
2022-08-12T08:03:08.921Z,43.40
2022-08-12T08:05:46.429Z,14.85
2022-08-12T08:08:18.511Z,14.82
2022-08-12T08:10:45.498Z,37.97
2022-08-12T08:13:12.595Z,33.53
2022-08-12T08:18:27.820Z,48.72
2022-08-12T08:20:56.472Z,29.48
2022-08-12T08:23:35.034Z,72.70
2022-08-12T08:26:03.673Z,17.35
2022-08-12T08:28:35.961Z,16.67
2022-08-12T08:31:02.485Z,17.52
2022-08-12T08:34:09.761Z,17.38
2022-08-12T08:36:23.682Z,15.80
2022-08-12T08:38:56.037Z,14.45
2022-08-12T08:42:15.145Z,12.73
2022-08-12T08:44:30.530Z,11.07
2022-08-12T08:46:57.142Z,9.70
2022-08-12T08:49:23.680Z,9.32
2022-08-12T08:51:50.244Z,8.50
2022-08-12T08:54:17.219Z,7.10
2022-08-12T08:56:44.471Z,7.03
2022-08-12T08:59:12.574Z,7.03
2022-08-12T09:01:40.417Z,5.90
2022-08-12T09:05:08.016Z,5.50
2022-08-12T09:06:58.522Z,4.93
2022-08-12T09:09:28.349Z,5.45
2022-08-12T09:12:27.410Z,10.55
2022-08-12T09:14:54.471Z,15.85
2022-08-12T09:17:22.283Z,21.80
2022-08-12T09:19:53.637Z,28.02
2022-08-12T09:22:29.251Z,32.78
2022-08-12T09:24:56.263Z,51.13
2022-08-12T09:28:03.521Z,31.92
2022-08-12T09:30:16.592Z,49.83
2022-08-12T09:33:03.861Z,25.92
2022-08-12T09:35:43.041Z,23.92
2022-08-12T09:38:27.948Z,34.42
2022-08-12T09:41:01.488Z,54.53
2022-08-12T09:44:04.993Z,33.10
2022-08-12T09:46:34.493Z,23.30
2022-08-12T09:49:01.545Z,22.17
2022-08-12T09:51:37.511Z,19.08
2022-08-12T09:54:09.226Z,17.25
2022-08-12T09:57:01.706Z,14.63
2022-08-12T10:00:17.030Z,13.00
2022-08-12T10:02:48.748Z,12.70
2022-08-12T10:05:04.555Z,10.35
2022-08-12T10:07:39.334Z,9.38
2022-08-12T10:10:23.792Z,8.98
2022-08-12T10:13:13.404Z,42.10
2022-08-12T10:16:01.871Z,13.37
2022-08-12T10:18:32.859Z,18.88
2022-08-12T10:21:06.148Z,27.25
2022-08-12T10:23:39.827Z,55.43
2022-08-12T10:26:37.279Z,53.70
2022-08-12T10:30:03.117Z,56.45
2022-08-12T10:32:20.551Z,76.40
2022-08-12T10:34:53.708Z,47.30
2022-08-12T10:38:32.264Z,79.07
2022-08-12T10:40:18.942Z,36.03
2022-08-12T10:43:05.335Z,32.30
2022-08-12T10:45:31.926Z,26.33
2022-08-12T10:48:07.418Z,23.75
2022-08-12T10:51:02.361Z,20.75
2022-08-12T10:53:43.652Z,18.10
2022-08-12T10:56:16.341Z,15.18
2022-08-12T10:58:46.047Z,13.30
2022-08-12T11:01:50.531Z,12.57
2022-08-12T11:04:23.462Z,10.35
2022-08-12T11:07:09.296Z,8.32
2022-08-12T11:09:56.209Z,7.55
2022-08-12T11:12:56.338Z,6.30
2022-08-12T11:15:20.816Z,5.63
2022-08-12T11:17:53.829Z,5.25
2022-08-12T11:20:24.364Z,4.95
2022-08-12T11:23:04.202Z,4.13
2022-08-12T11:25:58.079Z,3.92
2022-08-12T11:28:35.078Z,3.42
2022-08-12T11:31:06.237Z,3.20
2022-08-12T11:34:04.730Z,3.47
2022-08-12T11:36:22.235Z,2.88
2022-08-12T11:38:50.831Z,2.75
2022-08-12T11:41:31.131Z,2.50
2022-08-12T11:44:12.666Z,2.65
2022-08-12T11:46:47.096Z,2.60
2022-08-12T11:49:26.853Z,2.10
2022-08-12T11:52:00.965Z,2.05
2022-08-12T11:54:29.664Z,1.95
2022-08-12T11:57:00.213Z,2.00
2022-08-12T12:02:18.819Z,2.00
2022-08-12T12:04:46.918Z,1.92
2022-08-12T12:07:21.107Z,1.83
2022-08-12T12:09:53.308Z,2.00
2022-08-12T12:12:23.429Z,2.10
2022-08-12T12:14:54.726Z,1.70
2022-08-12T12:17:26.198Z,2.03
2022-08-12T12:20:10.371Z,1.90
2022-08-12T12:22:40.364Z,1.90
2022-08-12T12:25:12.730Z,1.83
2022-08-12T12:28:04.921Z,2.15
2022-08-12T12:30:35.979Z,1.83
2022-08-12T12:33:05.336Z,2.00
2022-08-12T12:36:16.628Z,1.90
2022-08-12T12:38:20.016Z,1.90
2022-08-12T12:40:50.611Z,1.90
2022-08-12T12:43:28.671Z,2.10
2022-08-12T12:46:05.562Z,1.80
2022-08-12T12:48:32.106Z,2.08
2022-08-12T12:51:48.276Z,2.08
2022-08-12T12:54:08.575Z,1.80
2022-08-12T12:56:38.325Z,1.80
2022-08-12T12:59:05.930Z,1.55
2022-08-12T13:01:38.134Z,1.65
2022-08-12T13:04:08.022Z,1.50
2022-08-12T13:06:39.578Z,1.73
2022-08-12T13:09:09.060Z,1.70
2022-08-12T13:11:41.635Z,1.85
2022-08-12T13:14:30.934Z,1.80
2022-08-12T13:17:02.760Z,2.00
2022-08-12T13:19:37.896Z,1.77
2022-08-12T13:22:18.602Z,1.60
2022-08-12T13:24:54.487Z,1.75
2022-08-12T13:27:28.359Z,1.80
2022-08-12T13:30:06.606Z,2.10
2022-08-12T13:35:04.446Z,1.92
2022-08-12T13:37:55.665Z,1.85
2022-08-12T13:40:32.646Z,1.88
2022-08-12T13:43:01.877Z,1.85
2022-08-12T13:45:30.981Z,1.77
2022-08-12T13:48:06.329Z,2.33
2022-08-12T13:50:37.345Z,1.75
2022-08-12T13:53:24.493Z,1.67
2022-08-12T13:55:59.298Z,1.80
2022-08-12T13:58:27.744Z,2.00
2022-08-12T14:00:55.877Z,1.85
2022-08-12T14:03:28.393Z,1.60
2022-08-12T14:06:15.562Z,1.58
2022-08-12T14:11:09.507Z,1.60
2022-08-12T14:14:03.660Z,1.70
2022-08-12T14:16:37.655Z,1.63
2022-08-12T14:19:22.188Z,1.75
2022-08-12T14:21:59.107Z,1.80
2022-08-12T14:24:27.347Z,1.73
2022-08-12T14:27:01.796Z,1.80
2022-08-12T14:29:55.681Z,1.50
2022-08-12T14:32:17.596Z,1.60
2022-08-12T14:34:46.195Z,1.58
2022-08-12T14:37:13.103Z,1.83
2022-08-12T14:40:00.508Z,1.75
2022-08-12T14:42:28.545Z,1.50
2022-08-12T14:44:59.389Z,1.45
2022-08-12T14:47:26.833Z,2.00
2022-08-12T14:50:37.190Z,1.50
2022-08-12T14:54:40.502Z,1.55
2022-08-12T14:58:20.563Z,1.90
2022-08-12T15:01:06.841Z,1.73
2022-08-12T15:03:52.836Z,1.50
2022-08-12T15:06:43.675Z,1.80
2022-08-12T15:09:09.329Z,1.40
2022-08-12T15:11:54.305Z,1.35
2022-08-12T15:14:25.524Z,1.58
2022-08-12T15:16:52.970Z,1.63
2022-08-12T15:20:11.004Z,1.65
2022-08-12T15:22:38.686Z,1.60
2022-08-12T15:24:53.590Z,1.60
2022-08-12T15:27:22.442Z,1.63
2022-08-12T15:29:58.597Z,1.40
2022-08-12T15:32:32.390Z,1.52
2022-08-12T15:35:00.656Z,1.50
2022-08-12T15:37:58.960Z,1.45
2022-08-12T15:40:13.957Z,1.30
2022-08-12T15:42:40.693Z,1.40
2022-08-12T15:45:23.563Z,1.42
2022-08-12T15:47:53.291Z,1.35
2022-08-12T15:50:45.513Z,1.20
2022-08-12T15:53:15.456Z,1.40
2022-08-12T15:55:46.058Z,1.58
2022-08-12T15:58:13.361Z,1.38
2022-08-12T16:00:43.251Z,1.30
2022-08-12T16:03:13.555Z,1.40
2022-08-12T16:06:16.992Z,1.38
2022-08-12T16:08:36.236Z,1.27
2022-08-12T16:11:07.320Z,1.50
2022-08-12T16:13:44.184Z,1.60
2022-08-12T16:16:22.911Z,1.38
2022-08-12T16:18:52.680Z,1.67
2022-08-12T16:21:50.313Z,1.27
2022-08-12T16:24:11.370Z,1.20
2022-08-12T16:26:40.624Z,1.42
2022-08-12T16:29:16.065Z,1.40
2022-08-12T16:31:44.218Z,1.20
2022-08-12T16:34:26.106Z,1.30
2022-08-12T16:37:13.390Z,1.02
2022-08-12T16:40:01.124Z,1.23
2022-08-12T16:42:28.773Z,1.33
2022-08-12T16:44:57.436Z,1.60
2022-08-12T16:47:27.312Z,1.35
2022-08-12T16:49:55.671Z,1.40
2022-08-12T16:52:22.550Z,1.30
2022-08-12T16:54:49.841Z,1.23
2022-08-12T16:57:16.458Z,1.20
2022-08-12T16:59:54.254Z,1.15
2022-08-12T17:02:31.423Z,1.20
2022-08-12T17:05:04.149Z,1.50
2022-08-12T17:07:36.719Z,1.42
2022-08-12T17:10:06.689Z,1.38
2022-08-12T17:12:33.504Z,1.10
2022-08-12T17:15:21.375Z,1.20
2022-08-12T17:18:42.332Z,1.33
2022-08-12T17:20:46.611Z,1.15
2022-08-12T17:23:16.566Z,1.10
2022-08-12T17:25:50.986Z,1.20
2022-08-12T17:28:19.548Z,1.20
2022-08-12T17:30:59.800Z,1.67
2022-08-12T17:33:27.671Z,1.10
2022-08-12T17:35:58.504Z,1.33
2022-08-12T17:38:25.350Z,1.10
2022-08-12T17:40:52.060Z,1.10
2022-08-12T17:43:55.785Z,1.20
2022-08-12T17:46:13.124Z,1.00
2022-08-12T17:48:55.081Z,1.23
2022-08-12T17:51:24.535Z,1.17
2022-08-12T17:54:10.709Z,1.17
2022-08-12T17:56:40.649Z,1.23
2022-08-12T17:59:12.316Z,1.10
2022-08-12T18:01:43.096Z,1.25
2022-08-12T18:04:21.452Z,1.30
2022-08-12T18:06:51.879Z,1.20
2022-08-12T18:09:20.290Z,1.35
2022-08-12T18:12:08.303Z,0.95
2022-08-12T18:14:37.096Z,1.00
2022-08-12T18:17:08.869Z,1.27
2022-08-12T18:20:06.528Z,1.20
2022-08-12T18:22:31.628Z,0.98
2022-08-12T18:26:13.369Z,1.20
2022-08-12T18:28:15.330Z,1.40
2022-08-12T18:30:52.868Z,1.10
2022-08-12T18:33:25.361Z,1.13
2022-08-12T18:35:55.539Z,1.20
2022-08-12T18:38:24.784Z,1.23
2022-08-12T18:41:20.930Z,1.25
2022-08-12T18:44:02.727Z,1.20
2022-08-12T18:46:46.786Z,1.10
2022-08-12T18:49:22.536Z,1.10
2022-08-12T18:51:55.346Z,1.15
2022-08-12T18:54:53.832Z,1.00
2022-08-12T18:58:06.405Z,1.20
2022-08-12T19:00:21.598Z,1.00
2022-08-12T19:02:50.227Z,1.20
2022-08-12T19:05:19.804Z,1.20
2022-08-12T19:08:01.710Z,1.35
2022-08-12T19:10:30.818Z,1.30
2022-08-12T19:13:23.554Z,1.20
2022-08-12T19:15:53.426Z,1.00
2022-08-12T19:18:22.051Z,1.08
2022-08-12T19:20:50.361Z,1.20
2022-08-12T19:23:20.961Z,1.10
2022-08-12T19:25:59.713Z,1.27
2022-08-12T19:28:34.846Z,1.17
2022-08-12T19:31:56.565Z,1.08
2022-08-12T19:35:24.130Z,1.10
2022-08-12T19:38:04.173Z,1.00
2022-08-12T19:40:20.060Z,1.00
2022-08-12T19:42:57.711Z,1.13
2022-08-12T19:45:43.678Z,1.08
2022-08-12T19:48:18.012Z,1.20
2022-08-12T19:50:50.465Z,1.23
2022-08-12T19:53:20.440Z,1.20
2022-08-12T19:55:52.730Z,1.00
2022-08-12T19:58:20.395Z,1.10
2022-08-12T20:00:53.362Z,1.00
2022-08-12T20:03:38.794Z,1.00
2022-08-12T20:06:16.274Z,1.20
2022-08-12T20:08:55.630Z,1.30
2022-08-12T20:12:13.201Z,1.10
2022-08-12T20:14:12.560Z,1.20
2022-08-12T20:16:52.301Z,1.23
2022-08-12T20:19:23.954Z,1.20
2022-08-12T20:22:14.255Z,1.20
2022-08-12T20:24:42.361Z,0.95
2022-08-12T20:27:53.723Z,1.23
2022-08-12T20:29:59.558Z,1.17
2022-08-12T20:32:29.483Z,1.25
2022-08-12T20:34:56.432Z,1.00
2022-08-12T20:38:04.973Z,1.13
2022-08-12T20:40:15.069Z,1.23
2022-08-12T20:42:41.685Z,1.30
2022-08-12T20:45:09.021Z,1.10
2022-08-12T20:47:46.351Z,1.20
2022-08-12T20:50:13.881Z,1.27
2022-08-12T20:52:41.181Z,1.20
2022-08-12T20:55:15.704Z,1.08
2022-08-12T20:58:02.774Z,1.17
2022-08-12T21:00:31.743Z,1.13
2022-08-12T21:03:19.489Z,1.20
2022-08-12T21:06:12.973Z,1.30
2022-08-12T21:08:41.136Z,1.38
2022-08-12T21:11:09.557Z,1.27
2022-08-12T21:13:38.925Z,1.30
2022-08-12T21:16:06.175Z,1.40
2022-08-12T21:18:36.830Z,1.45
2022-08-12T21:21:06.516Z,1.10
2022-08-12T21:23:37.131Z,1.40
2022-08-12T21:26:16.141Z,1.35
2022-08-12T21:28:58.089Z,1.23
2022-08-12T21:32:39.908Z,1.40
2022-08-12T21:34:17.873Z,1.20
2022-08-12T21:36:48.739Z,1.15
2022-08-12T21:39:21.333Z,1.30
2022-08-12T21:41:52.853Z,1.40
2022-08-12T21:44:24.686Z,1.48
2022-08-12T21:47:19.682Z,1.40
2022-08-12T21:49:54.618Z,1.50
2022-08-12T21:52:28.123Z,1.35
2022-08-12T21:55:01.483Z,1.50
2022-08-12T21:57:30.325Z,1.50
2022-08-12T22:00:05.489Z,1.50
2022-08-12T22:03:01.955Z,1.52
2022-08-12T22:05:46.908Z,1.65
2022-08-12T22:08:15.935Z,1.58
2022-08-12T22:10:52.372Z,1.60
2022-08-12T22:14:02.499Z,1.60
2022-08-12T22:16:07.528Z,1.58
2022-08-12T22:18:34.496Z,1.50
2022-08-12T22:21:01.022Z,1.50
2022-08-12T22:23:28.599Z,1.67
2022-08-12T22:26:28.960Z,1.38
2022-08-12T22:29:17.185Z,1.50
2022-08-12T22:31:43.983Z,1.60
2022-08-12T22:34:18.390Z,1.30
2022-08-12T22:36:45.661Z,1.50
2022-08-12T22:39:15.945Z,1.40
2022-08-12T22:42:01.526Z,1.60
2022-08-12T22:44:54.874Z,1.30
2022-08-12T22:47:54.040Z,1.60
2022-08-12T22:50:27.714Z,1.60
2022-08-12T22:53:15.140Z,1.60
2022-08-12T22:55:59.063Z,1.45
2022-08-12T22:58:33.530Z,1.40
2022-08-12T23:01:02.525Z,1.30
2022-08-12T23:03:47.924Z,1.73
2022-08-12T23:06:16.696Z,1.63
2022-08-12T23:08:43.539Z,1.50
2022-08-12T23:11:10.204Z,1.63
2022-08-12T23:13:54.743Z,1.60
2022-08-12T23:16:31.522Z,1.50
2022-08-12T23:19:17.939Z,1.65
2022-08-12T23:22:06.018Z,1.45
2022-08-12T23:24:54.135Z,1.50
2022-08-12T23:27:50.173Z,1.38
2022-08-12T23:30:24.725Z,1.60
2022-08-12T23:32:54.641Z,1.30
2022-08-12T23:35:28.434Z,1.30
2022-08-12T23:38:30.343Z,1.40
2022-08-12T23:40:57.856Z,1.50
2022-08-12T23:43:25.472Z,1.48
2022-08-12T23:46:00.828Z,1.40
2022-08-12T23:48:31.509Z,1.42
2022-08-12T23:50:59.469Z,1.60
2022-08-12T23:53:32.370Z,1.50
2022-08-12T23:55:59.541Z,1.52
2022-08-12T23:58:28.553Z,1.60
